createdAt,value
2018-08-20T00:02:07.931Z,8.48
2018-08-20T00:04:41.828Z,7.22
2018-08-20T00:07:10.362Z,8.38
2018-08-20T00:09:44.237Z,7.83
2018-08-20T00:12:12.709Z,8.20
2018-08-20T00:14:41.103Z,7.75
2018-08-20T00:17:10.897Z,7.97
2018-08-20T00:19:40.893Z,7.55
2018-08-20T00:22:09.588Z,7.92
2018-08-20T00:24:38.053Z,8.25
2018-08-20T00:27:06.532Z,8.00
2018-08-20T00:29:36.450Z,8.03
2018-08-20T00:32:05.121Z,7.45
2018-08-20T00:34:33.527Z,8.25
2018-08-20T00:37:02.029Z,8.50
2018-08-20T00:39:31.497Z,7.97
2018-08-20T00:42:00.223Z,7.50
2018-08-20T00:44:29.384Z,7.25
2018-08-20T00:46:58.126Z,6.95
2018-08-20T00:49:26.625Z,7.12
2018-08-20T00:51:55.107Z,7.22
2018-08-20T00:54:23.641Z,6.72
2018-08-20T00:56:52.185Z,8.68
2018-08-20T00:59:20.651Z,7.28
2018-08-20T01:01:49.069Z,7.58
2018-08-20T01:04:21.796Z,7.87
2018-08-20T01:06:50.246Z,7.35
2018-08-20T01:09:20.220Z,7.28
2018-08-20T01:11:50.566Z,7.10
2018-08-20T01:14:19.313Z,8.00
2018-08-20T01:16:48.155Z,7.37
2018-08-20T01:19:17.101Z,7.62
2018-08-20T01:21:45.526Z,7.67
2018-08-20T01:24:13.893Z,8.73
2018-08-20T01:26:42.447Z,7.85
2018-08-20T01:29:10.894Z,8.85
2018-08-20T01:31:39.278Z,7.90
2018-08-20T01:34:07.689Z,8.28
2018-08-20T01:36:36.105Z,8.33
2018-08-20T01:39:05.348Z,8.08
2018-08-20T01:41:33.729Z,8.48
2018-08-20T01:44:02.098Z,8.63
2018-08-20T01:46:30.563Z,8.28
2018-08-20T01:48:58.918Z,9.13
2018-08-20T01:51:27.643Z,9.08
2018-08-20T01:53:56.078Z,8.45
2018-08-20T01:56:24.599Z,9.20
2018-08-20T01:58:53.016Z,8.33
2018-08-20T02:01:21.548Z,8.85
2018-08-20T02:03:49.951Z,8.43
2018-08-20T02:06:18.494Z,8.20
2018-08-20T02:08:46.904Z,9.35
2018-08-20T02:11:15.316Z,9.23
2018-08-20T02:13:43.776Z,8.68
2018-08-20T02:16:12.274Z,9.00
2018-08-20T02:18:41.141Z,9.38
2018-08-20T02:21:09.727Z,8.63
2018-08-20T02:23:38.212Z,9.20
2018-08-20T02:26:06.813Z,9.70
2018-08-20T02:28:35.224Z,10.05
2018-08-20T02:31:03.602Z,9.05
2018-08-20T02:33:32.209Z,8.73
2018-08-20T02:36:00.632Z,9.53
2018-08-20T02:38:29.718Z,9.50
2018-08-20T02:40:58.186Z,8.68
2018-08-20T02:43:26.621Z,8.58
2018-08-20T02:45:55.081Z,8.93
2018-08-20T02:48:23.493Z,9.48
2018-08-20T02:50:51.975Z,9.73
2018-08-20T02:53:20.434Z,9.38
2018-08-20T02:55:48.889Z,8.43
2018-08-20T02:58:17.333Z,9.53
2018-08-20T03:00:45.755Z,9.28
2018-08-20T03:03:14.225Z,9.23
2018-08-20T03:05:42.693Z,9.00
2018-08-20T03:08:10.992Z,9.75
2018-08-20T03:10:39.462Z,9.75
2018-08-20T03:13:07.887Z,9.30
2018-08-20T03:18:10.370Z,9.00
2018-08-20T03:20:38.817Z,9.75
2018-08-20T03:23:07.367Z,9.55
2018-08-20T03:25:35.859Z,10.30
2018-08-20T03:28:04.287Z,9.68
2018-08-20T03:30:32.809Z,10.08
2018-08-20T03:33:01.335Z,9.75
2018-08-20T03:35:29.789Z,10.03
2018-08-20T03:37:58.358Z,10.50
2018-08-20T03:40:26.873Z,9.28
2018-08-20T03:42:55.315Z,9.70
2018-08-20T03:45:23.817Z,10.80
2018-08-20T03:47:52.276Z,10.25
2018-08-20T03:50:20.743Z,10.83
2018-08-20T03:52:49.226Z,10.30
2018-08-20T03:55:17.752Z,11.23
2018-08-20T03:57:46.139Z,10.28
2018-08-20T04:00:14.762Z,10.40
2018-08-20T04:02:43.204Z,9.53
2018-08-20T04:05:11.709Z,10.07
2018-08-20T04:07:40.108Z,9.78
2018-08-20T04:10:08.633Z,10.05
2018-08-20T04:12:37.115Z,10.55
2018-08-20T04:15:06.419Z,9.58
2018-08-20T04:17:35.004Z,9.98
2018-08-20T04:20:03.549Z,10.03
2018-08-20T04:22:32.039Z,10.60
2018-08-20T04:25:00.792Z,9.15
2018-08-20T04:27:29.236Z,9.15
2018-08-20T04:29:57.723Z,9.45
2018-08-20T04:32:27.079Z,9.75
2018-08-20T04:34:55.567Z,9.28
2018-08-20T04:37:24.056Z,8.80
2018-08-20T04:39:52.561Z,9.40
2018-08-20T04:42:20.962Z,8.53
2018-08-20T04:44:49.411Z,9.25
2018-08-20T04:47:17.903Z,8.50
2018-08-20T04:49:46.365Z,9.70
2018-08-20T04:52:14.856Z,8.25
2018-08-20T04:54:43.770Z,9.45
2018-08-20T04:57:14.209Z,8.45
2018-08-20T04:59:42.668Z,9.60
2018-08-20T05:02:11.465Z,8.98
2018-08-20T05:04:39.989Z,9.90
2018-08-20T05:07:08.533Z,9.33
2018-08-20T05:09:37.318Z,10.80
2018-08-20T05:12:05.847Z,10.03
2018-08-20T05:14:34.366Z,9.88
2018-08-20T05:17:02.882Z,9.03
2018-08-20T05:19:31.336Z,8.80
2018-08-20T05:21:59.822Z,9.35
2018-08-20T05:24:28.280Z,9.43
2018-08-20T05:26:57.527Z,8.38
2018-08-20T05:29:26.080Z,8.20
2018-08-20T05:31:54.517Z,8.40
2018-08-20T05:34:22.968Z,8.73
2018-08-20T05:36:51.424Z,8.55
2018-08-20T05:39:19.940Z,8.35
2018-08-20T05:41:48.467Z,7.85
2018-08-20T05:44:17.028Z,7.80
2018-08-20T05:46:45.555Z,7.65
2018-08-20T05:49:14.013Z,7.87
2018-08-20T05:51:42.496Z,7.10
2018-08-20T05:54:11.289Z,7.67
2018-08-20T05:56:39.737Z,7.08
2018-08-20T05:59:08.363Z,6.50
2018-08-20T06:01:36.955Z,7.40
2018-08-20T06:04:05.495Z,7.50
2018-08-20T06:06:33.945Z,6.80
2018-08-20T06:09:02.474Z,8.00
2018-08-20T06:11:30.989Z,6.37
2018-08-20T06:13:59.409Z,6.53
2018-08-20T06:16:27.903Z,6.30
2018-08-20T06:18:56.420Z,7.12
2018-08-20T06:21:24.881Z,6.53
2018-08-20T06:23:53.398Z,6.67
2018-08-20T06:26:22.108Z,5.72
2018-08-20T06:28:50.622Z,5.87
2018-08-20T06:31:19.125Z,5.30
2018-08-20T06:33:47.585Z,5.85
2018-08-20T06:36:16.084Z,5.50
2018-08-20T06:38:44.639Z,5.65
2018-08-20T06:41:13.058Z,5.35
2018-08-20T06:43:41.544Z,4.20
2018-08-20T06:46:10.081Z,5.05
2018-08-20T06:48:38.606Z,3.80
2018-08-20T06:51:07.033Z,4.00
2018-08-20T06:53:35.554Z,5.20
2018-08-20T06:56:04.155Z,4.53
2018-08-20T06:58:32.516Z,4.22
2018-08-20T07:01:01.099Z,3.98
2018-08-20T07:03:29.565Z,4.37
2018-08-20T07:05:58.064Z,4.03
2018-08-20T07:08:26.588Z,4.05
2018-08-20T07:10:55.119Z,3.47
2018-08-20T07:13:35.544Z,3.30
2018-08-20T07:16:04.372Z,3.42
2018-08-20T07:18:32.890Z,3.85
2018-08-20T07:21:01.469Z,3.47
2018-08-20T07:23:30.629Z,3.95
2018-08-20T07:25:59.205Z,3.58
2018-08-20T07:28:27.649Z,3.30
2018-08-20T07:30:56.106Z,3.05
2018-08-20T07:33:24.595Z,3.27
2018-08-20T07:35:53.177Z,3.20
2018-08-20T07:38:21.621Z,3.42
2018-08-20T07:40:50.085Z,3.10
2018-08-20T07:43:19.482Z,2.98
2018-08-20T07:45:47.913Z,3.00
2018-08-20T07:48:16.418Z,2.77
2018-08-20T07:50:45.032Z,3.10
2018-08-20T07:53:13.563Z,2.65
2018-08-20T07:55:42.081Z,2.45
2018-08-20T07:58:10.666Z,2.47
2018-08-20T08:00:39.145Z,1.85
2018-08-20T08:03:07.605Z,2.02
2018-08-20T08:05:36.250Z,1.92
2018-08-20T08:08:04.801Z,1.85
2018-08-20T08:10:33.409Z,1.65
2018-08-20T08:13:08.451Z,1.65
2018-08-20T08:15:36.950Z,1.67
2018-08-20T08:18:05.746Z,1.40
2018-08-20T08:23:09.495Z,1.40
2018-08-20T08:25:38.036Z,1.50
2018-08-20T08:28:06.582Z,1.40
2018-08-20T08:30:35.097Z,1.60
2018-08-20T08:33:03.820Z,1.52
2018-08-20T08:35:32.305Z,1.52
2018-08-20T08:38:02.090Z,1.70
2018-08-20T08:40:30.765Z,1.92
